createdAt,value
2023-02-28T00:02:11.634Z,23.67
2023-02-28T00:05:18.149Z,15.20
2023-02-28T00:08:22.503Z,11.73
2023-02-28T00:11:26.985Z,14.05
2023-02-28T00:14:32.822Z,17.15
2023-02-28T00:17:37.720Z,20.02
2023-02-28T00:20:42.222Z,19.20
2023-02-28T00:23:46.606Z,14.35
2023-02-28T00:26:50.877Z,17.73
2023-02-28T00:29:56.040Z,14.05
2023-02-28T00:33:01.182Z,13.20
2023-02-28T00:36:08.236Z,11.45
2023-02-28T00:39:14.319Z,9.80
2023-02-28T00:42:18.609Z,11.57
2023-02-28T00:45:25.396Z,10.70
2023-02-28T00:48:30.297Z,52.65
2023-02-28T00:51:34.628Z,16.97
2023-02-28T00:54:38.875Z,11.63
2023-02-28T00:57:45.578Z,13.80
2023-02-28T01:00:50.706Z,11.35
2023-02-28T01:03:55.002Z,13.13
2023-02-28T01:06:58.908Z,11.70
2023-02-28T01:10:03.672Z,11.38
2023-02-28T01:13:08.008Z,11.18
2023-02-28T01:16:15.340Z,12.10
2023-02-28T01:19:19.639Z,12.80
2023-02-28T01:22:23.886Z,11.68
2023-02-28T01:25:28.191Z,11.40
2023-02-28T01:28:32.126Z,14.75
2023-02-28T01:31:38.543Z,15.15
2023-02-28T01:34:45.692Z,15.38
2023-02-28T01:37:49.937Z,17.23
2023-02-28T01:40:54.168Z,15.85
2023-02-28T01:44:07.324Z,14.43
2023-02-28T01:47:11.269Z,17.70
2023-02-28T01:50:20.414Z,21.52
2023-02-28T01:53:32.233Z,20.08
2023-02-28T01:56:38.603Z,17.77
2023-02-28T01:59:52.813Z,19.00
2023-02-28T02:03:01.681Z,16.83
2023-02-28T02:06:05.775Z,21.05
2023-02-28T02:09:09.971Z,19.15
2023-02-28T02:12:32.632Z,24.77
2023-02-28T02:15:46.337Z,19.77
2023-02-28T02:19:00.661Z,22.02
2023-02-28T02:22:28.526Z,22.20
2023-02-28T02:25:51.740Z,21.77
2023-02-28T02:29:06.076Z,19.52
2023-02-28T02:33:01.300Z,18.08
2023-02-28T02:36:32.637Z,25.73
2023-02-28T02:39:55.250Z,32.05
2023-02-28T02:43:09.144Z,27.30
2023-02-28T02:46:33.130Z,27.80
2023-02-28T02:49:40.482Z,30.13
2023-02-28T02:52:50.564Z,28.63
2023-02-28T02:55:57.354Z,27.65
2023-02-28T02:59:08.198Z,23.10
2023-02-28T03:02:16.414Z,23.60
2023-02-28T03:05:28.704Z,25.52
2023-02-28T03:08:37.722Z,30.58
2023-02-28T03:11:44.070Z,36.25
2023-02-28T03:15:21.953Z,24.70
2023-02-28T03:19:00.074Z,32.00
2023-02-28T03:22:13.785Z,21.67
2023-02-28T03:25:54.622Z,20.92
2023-02-28T03:29:14.762Z,21.98
2023-02-28T03:32:41.411Z,23.27
2023-02-28T03:35:55.166Z,23.95
2023-02-28T03:39:09.253Z,30.17
2023-02-28T03:42:22.637Z,27.75
2023-02-28T03:45:32.027Z,30.48
2023-02-28T03:49:02.598Z,25.17
2023-02-28T03:52:09.570Z,98.97
2023-02-28T03:55:16.916Z,56.03
2023-02-28T03:58:41.179Z,36.80
2023-02-28T04:01:48.574Z,33.60
2023-02-28T04:04:52.956Z,35.33
2023-02-28T04:08:06.588Z,38.05
2023-02-28T04:11:32.643Z,39.95
2023-02-28T04:14:37.103Z,40.35
2023-02-28T04:17:40.997Z,36.85
2023-02-28T04:20:45.094Z,33.83
2023-02-28T04:23:48.992Z,34.53
2023-02-28T04:26:55.614Z,49.22
2023-02-28T04:29:59.881Z,43.28
2023-02-28T04:33:03.858Z,33.50
2023-02-28T04:36:11.122Z,37.15
2023-02-28T04:39:15.763Z,56.75
2023-02-28T04:42:20.034Z,35.10
2023-02-28T04:45:24.912Z,34.15
2023-02-28T04:48:34.701Z,35.78
2023-02-28T04:51:39.650Z,36.50
2023-02-28T04:54:43.720Z,36.20
2023-02-28T04:57:47.640Z,38.53
2023-02-28T05:00:55.412Z,38.65
2023-02-28T05:04:02.223Z,35.67
2023-02-28T05:07:06.514Z,37.22
2023-02-28T05:10:11.784Z,40.53
2023-02-28T05:13:16.385Z,40.53
2023-02-28T05:16:21.889Z,39.75
2023-02-28T05:19:26.477Z,40.70
2023-02-28T05:22:30.785Z,40.40
2023-02-28T05:25:35.483Z,42.85
2023-02-28T05:28:40.055Z,41.95
2023-02-28T05:31:44.385Z,40.05
2023-02-28T05:34:48.790Z,46.17
2023-02-28T05:37:53.546Z,73.07
2023-02-28T05:40:58.129Z,59.05
2023-02-28T05:44:02.502Z,44.53
2023-02-28T05:47:06.364Z,55.42
2023-02-28T05:50:12.386Z,58.70
2023-02-28T05:53:16.155Z,58.90
2023-02-28T05:56:20.451Z,43.40
2023-02-28T05:59:24.759Z,37.85
2023-02-28T06:02:30.117Z,47.00
2023-02-28T06:05:34.928Z,44.40
2023-02-28T06:08:39.794Z,47.08
2023-02-28T06:11:44.584Z,58.83
2023-02-28T06:14:48.873Z,40.08
2023-02-28T06:17:54.149Z,52.00
2023-02-28T06:20:58.613Z,48.78
2023-02-28T06:24:03.354Z,42.75
2023-02-28T06:27:07.746Z,40.55
2023-02-28T06:30:13.604Z,44.15
2023-02-28T06:33:18.486Z,59.60
2023-02-28T06:36:22.835Z,46.67
2023-02-28T06:39:27.128Z,52.60
2023-02-28T06:42:32.532Z,50.97
2023-02-28T06:45:37.720Z,45.33
2023-02-28T06:48:42.422Z,46.95
2023-02-28T06:51:47.028Z,49.20
2023-02-28T06:55:01.532Z,47.72
2023-02-28T06:58:16.277Z,71.95
2023-02-28T07:01:21.173Z,46.00
2023-02-28T07:04:25.722Z,48.65
2023-02-28T07:07:30.155Z,51.78
2023-02-28T07:10:35.609Z,49.22
2023-02-28T07:13:39.470Z,52.90
2023-02-28T07:16:43.420Z,66.68
2023-02-28T07:19:48.103Z,85.38
2023-02-28T07:22:58.056Z,63.33
2023-02-28T07:26:02.723Z,61.38
2023-02-28T07:29:07.004Z,53.75
2023-02-28T07:32:11.412Z,48.15
2023-02-28T07:35:17.159Z,49.72
2023-02-28T07:38:21.443Z,48.08
2023-02-28T07:41:27.664Z,49.75
2023-02-28T07:44:31.997Z,77.88
2023-02-28T07:47:36.529Z,50.50
2023-02-28T07:50:40.441Z,52.38
2023-02-28T07:53:44.461Z,43.63
2023-02-28T07:56:50.171Z,59.10
2023-02-28T07:59:55.148Z,42.78
2023-02-28T08:02:59.878Z,40.88
2023-02-28T08:06:08.570Z,40.70
2023-02-28T08:09:13.390Z,41.70
2023-02-28T08:12:18.040Z,37.75
2023-02-28T08:15:22.278Z,37.97
2023-02-28T08:18:26.826Z,40.38
2023-02-28T08:21:31.528Z,40.97
2023-02-28T08:24:36.410Z,39.50
2023-02-28T08:27:40.601Z,40.40
2023-02-28T08:30:44.585Z,45.55
2023-02-28T08:33:51.655Z,40.38
2023-02-28T08:36:55.686Z,41.47
2023-02-28T08:39:59.426Z,37.97
2023-02-28T08:43:03.742Z,35.42
2023-02-28T08:46:09.260Z,29.77
2023-02-28T08:49:13.650Z,30.48
2023-02-28T08:52:18.842Z,31.25
2023-02-28T08:55:23.456Z,27.23
2023-02-28T08:58:28.500Z,34.95
2023-02-28T09:01:34.693Z,31.58
2023-02-28T09:04:39.082Z,37.72
2023-02-28T09:07:44.155Z,28.70
2023-02-28T09:10:48.986Z,17.03
2023-02-28T09:13:53.264Z,28.30
2023-02-28T09:16:57.691Z,25.13
2023-02-28T09:20:02.139Z,16.45
2023-02-28T09:23:06.872Z,14.50
2023-02-28T09:26:16.753Z,17.13
2023-02-28T09:29:22.234Z,15.13
2023-02-28T09:35:32.483Z,13.30
2023-02-28T09:38:37.294Z,14.10
2023-02-28T09:41:52.413Z,12.95
2023-02-28T09:44:58.784Z,12.20
2023-02-28T09:48:09.392Z,11.48
2023-02-28T09:51:50.776Z,9.90
2023-02-28T09:54:54.781Z,13.45
2023-02-28T09:58:01.648Z,10.55
2023-02-28T10:01:20.084Z,17.63
2023-02-28T10:04:39.523Z,9.80
2023-02-28T10:07:56.963Z,11.30
2023-02-28T10:11:06.204Z,10.05
2023-02-28T10:14:23.608Z,9.73
2023-02-28T10:17:54.900Z,8.93
2023-02-28T10:21:07.479Z,8.95
2023-02-28T10:24:32.278Z,9.60
2023-02-28T10:27:37.163Z,9.55
2023-02-28T10:30:48.781Z,8.13
2023-02-28T10:33:53.161Z,7.68
2023-02-28T10:36:58.300Z,7.43
2023-02-28T10:40:02.884Z,7.57
2023-02-28T10:43:20.933Z,7.05
2023-02-28T10:46:29.772Z,6.95
2023-02-28T10:49:36.679Z,6.45
2023-02-28T10:52:44.536Z,6.45
2023-02-28T10:56:10.580Z,5.82
2023-02-28T10:59:29.412Z,5.95
2023-02-28T11:02:44.710Z,5.60
2023-02-28T11:05:50.690Z,5.07
2023-02-28T11:09:02.111Z,5.10
2023-02-28T11:12:09.540Z,5.15
2023-02-28T11:16:12.380Z,5.20
2023-02-28T11:19:42.127Z,4.90
2023-02-28T11:22:48.162Z,4.72
2023-02-28T11:25:58.859Z,4.93
2023-02-28T11:29:23.726Z,5.15
2023-02-28T11:32:30.717Z,5.40
2023-02-28T11:35:38.796Z,5.10
2023-02-28T11:46:29.101Z,6.10
2023-02-28T11:49:52.208Z,15.18
2023-02-28T11:53:03.240Z,5.82
2023-02-28T11:56:39.009Z,14.35
2023-02-28T12:00:02.979Z,13.48
2023-02-28T12:03:29.795Z,6.05
2023-02-28T12:07:11.182Z,5.45
2023-02-28T12:10:26.509Z,8.85
2023-02-28T12:13:50.551Z,11.68
2023-02-28T12:17:20.820Z,7.68
2023-02-28T12:20:31.731Z,10.65
2023-02-28T12:24:07.205Z,18.50
2023-02-28T12:27:16.916Z,27.50
2023-02-28T12:30:52.274Z,23.38
2023-02-28T12:34:04.117Z,25.10
2023-02-28T12:37:18.691Z,25.02
2023-02-28T12:40:31.305Z,14.95
2023-02-28T12:43:43.060Z,14.55
2023-02-28T12:46:54.908Z,21.70
2023-02-28T12:50:04.280Z,24.05
2023-02-28T12:53:24.945Z,20.58
2023-02-28T12:56:39.432Z,22.13
2023-02-28T13:00:01.947Z,18.35
2023-02-28T13:03:35.455Z,7.13
2023-02-28T13:07:04.048Z,7.72
2023-02-28T13:10:09.849Z,23.40
2023-02-28T13:16:23.573Z,4.40
2023-02-28T13:19:35.601Z,4.72
2023-02-28T13:22:48.993Z,6.00
2023-02-28T13:25:55.432Z,4.18
2023-02-28T13:29:06.550Z,4.30
2023-02-28T13:32:11.183Z,5.63
2023-02-28T13:35:17.088Z,4.30
2023-02-28T13:38:27.206Z,3.97
2023-02-28T13:41:31.360Z,6.53
2023-02-28T13:45:04.280Z,2.95
2023-02-28T13:48:26.826Z,2.60
2023-02-28T13:51:51.263Z,3.08
2023-02-28T13:55:37.895Z,3.00
2023-02-28T13:58:52.337Z,3.00
2023-02-28T14:02:02.438Z,3.00
2023-02-28T14:05:21.550Z,2.88
2023-02-28T14:08:25.953Z,3.35
2023-02-28T14:11:34.765Z,6.00
2023-02-28T14:14:39.007Z,3.05
2023-02-28T14:17:43.597Z,3.20
2023-02-28T14:20:51.210Z,3.80
2023-02-28T14:24:13.668Z,4.60
2023-02-28T14:27:39.287Z,3.47
2023-02-28T14:30:46.594Z,31.30
2023-02-28T14:34:21.463Z,4.13
2023-02-28T14:37:33.139Z,3.08
2023-02-28T14:40:40.613Z,12.60
2023-02-28T14:43:57.497Z,25.55
2023-02-28T14:47:10.695Z,9.05
2023-02-28T14:50:29.346Z,4.57
2023-02-28T14:53:39.406Z,3.08
2023-02-28T14:56:43.930Z,3.38
2023-02-28T14:59:48.249Z,3.53
2023-02-28T15:02:53.508Z,15.25
2023-02-28T15:06:00.246Z,9.88
2023-02-28T15:09:19.304Z,7.45
2023-02-28T15:16:01.875Z,6.00
2023-02-28T15:19:18.746Z,6.60
2023-02-28T15:25:43.677Z,3.55
2023-02-28T15:28:47.828Z,14.95
2023-02-28T15:31:58.416Z,3.83
2023-02-28T15:35:22.886Z,4.78
2023-02-28T15:38:29.236Z,5.70
2023-02-28T15:41:43.057Z,4.80
2023-02-28T15:44:47.987Z,4.85
2023-02-28T15:47:53.623Z,3.88
2023-02-28T15:51:19.114Z,4.13
2023-02-28T15:54:36.679Z,22.45
2023-02-28T15:57:42.523Z,37.60
2023-02-28T16:03:58.553Z,17.67
2023-02-28T16:07:05.571Z,10.73
2023-02-28T16:10:12.146Z,31.27
2023-02-28T16:13:17.774Z,14.88
2023-02-28T16:19:28.467Z,7.70
2023-02-28T16:22:32.673Z,5.45
2023-02-28T16:25:40.665Z,3.72
2023-02-28T16:28:46.026Z,3.47
2023-02-28T16:31:50.541Z,3.15
2023-02-28T16:34:54.946Z,5.40
2023-02-28T16:37:58.855Z,3.97
2023-02-28T16:41:03.341Z,14.27
2023-02-28T16:44:15.555Z,4.33
2023-02-28T16:47:20.293Z,3.50
2023-02-28T16:50:27.752Z,3.38
2023-02-28T16:53:31.654Z,4.35
2023-02-28T16:56:37.118Z,6.65
2023-02-28T16:59:42.044Z,9.23
2023-02-28T17:02:46.770Z,5.30
2023-02-28T17:05:51.200Z,5.35
2023-02-28T17:08:56.661Z,3.00
2023-02-28T17:12:01.337Z,3.42
2023-02-28T17:15:06.118Z,3.60
2023-02-28T17:18:22.985Z,3.60
2023-02-28T17:21:27.513Z,3.65
2023-02-28T17:24:31.865Z,3.50
2023-02-28T17:27:36.355Z,4.00
2023-02-28T17:30:42.491Z,3.08
2023-02-28T17:33:47.002Z,3.72
2023-02-28T17:36:54.028Z,4.25
2023-02-28T17:39:58.457Z,3.72
2023-02-28T17:43:02.831Z,4.35
2023-02-28T17:46:09.230Z,4.65
2023-02-28T17:49:13.698Z,4.70
2023-02-28T17:52:18.136Z,4.55
2023-02-28T17:55:22.547Z,6.57
2023-02-28T17:58:27.040Z,4.15
2023-02-28T18:01:31.494Z,5.88
2023-02-28T18:04:36.085Z,224.52
2023-02-28T18:07:41.230Z,247.05
2023-02-28T18:10:45.788Z,160.30
2023-02-28T18:13:52.817Z,125.65
2023-02-28T18:16:58.304Z,101.60
2023-02-28T18:20:02.874Z,127.03
2023-02-28T18:23:07.089Z,93.80
2023-02-28T18:26:11.761Z,66.50
2023-02-28T18:29:23.233Z,69.10
2023-02-28T18:32:28.935Z,56.55
2023-02-28T18:35:36.487Z,44.47
2023-02-28T18:38:41.434Z,30.13
2023-02-28T18:41:45.422Z,43.15
2023-02-28T18:44:49.157Z,34.25
2023-02-28T18:47:53.378Z,20.73
2023-02-28T18:50:58.497Z,18.05
2023-02-28T18:54:02.891Z,6.53
2023-02-28T18:57:07.333Z,4.85
2023-02-28T19:00:13.901Z,4.20
2023-02-28T19:03:18.293Z,5.53
2023-02-28T19:06:22.991Z,8.75
2023-02-28T19:09:27.348Z,8.50
2023-02-28T19:12:36.212Z,5.75
2023-02-28T19:15:40.779Z,4.43
2023-02-28T19:18:45.259Z,3.83
2023-02-28T19:21:48.959Z,3.25
2023-02-28T19:24:53.882Z,3.08
2023-02-28T19:27:58.614Z,5.28
2023-02-28T19:31:02.993Z,5.05
2023-02-28T19:34:07.326Z,5.32
2023-02-28T19:37:11.881Z,6.57
2023-02-28T19:40:16.514Z,5.47
2023-02-28T19:43:20.700Z,4.18
2023-02-28T19:46:24.964Z,4.03
2023-02-28T19:49:29.266Z,3.53
2023-02-28T19:52:33.971Z,4.05
2023-02-28T19:55:39.335Z,3.33
2023-02-28T19:58:43.774Z,3.38
2023-02-28T20:01:48.388Z,3.42
2023-02-28T20:04:52.895Z,2.75
2023-02-28T20:07:57.599Z,3.33
2023-02-28T20:11:16.495Z,3.15
2023-02-28T20:14:21.042Z,3.03
2023-02-28T20:17:25.853Z,3.25
2023-02-28T20:20:30.152Z,3.80
2023-02-28T20:23:34.458Z,3.90
2023-02-28T20:26:39.351Z,4.60
2023-02-28T20:29:43.548Z,5.55
2023-02-28T20:32:47.498Z,12.07
2023-02-28T20:35:53.572Z,10.02
2023-02-28T20:39:00.168Z,6.32
2023-02-28T20:42:04.815Z,6.35
2023-02-28T20:45:09.807Z,8.15
2023-02-28T20:48:14.164Z,8.65
2023-02-28T20:51:18.416Z,7.47
2023-02-28T20:54:23.007Z,7.10
2023-02-28T20:57:30.955Z,8.75
2023-02-28T21:00:35.524Z,11.40
2023-02-28T21:03:41.275Z,9.47
2023-02-28T21:06:47.052Z,11.30
2023-02-28T21:09:51.290Z,10.80
2023-02-28T21:12:58.451Z,9.57
2023-02-28T21:16:11.034Z,11.00
2023-02-28T21:19:15.703Z,9.20
2023-02-28T21:22:20.572Z,14.70
2023-02-28T21:25:24.770Z,11.35
2023-02-28T21:28:29.174Z,15.10
2023-02-28T21:31:35.033Z,12.25
2023-02-28T21:34:39.670Z,12.60
2023-02-28T21:37:44.958Z,21.80
2023-02-28T21:40:52.140Z,22.50
2023-02-28T21:43:57.787Z,15.77
2023-02-28T21:47:03.507Z,17.88
2023-02-28T21:50:08.469Z,20.03
2023-02-28T21:53:13.022Z,19.10
2023-02-28T21:56:28.446Z,23.13
2023-02-28T22:02:37.942Z,22.90
2023-02-28T22:05:42.004Z,25.27
2023-02-28T22:08:49.012Z,27.65
2023-02-28T22:11:53.816Z,35.50
2023-02-28T22:14:57.821Z,44.60
2023-02-28T22:18:01.829Z,44.85
2023-02-28T22:21:07.270Z,42.72
2023-02-28T22:24:12.427Z,45.08
2023-02-28T22:27:16.793Z,47.97
2023-02-28T22:30:21.183Z,45.70
2023-02-28T22:33:25.556Z,43.75
2023-02-28T22:36:31.199Z,51.17
2023-02-28T22:39:35.645Z,45.92
2023-02-28T22:42:40.278Z,49.03
2023-02-28T22:45:44.621Z,37.63
2023-02-28T22:48:49.745Z,39.67
2023-02-28T22:51:53.733Z,18.58
2023-02-28T22:54:57.429Z,20.63
2023-02-28T22:58:01.688Z,15.77
2023-02-28T23:01:15.913Z,55.95
2023-02-28T23:04:20.354Z,19.70
2023-02-28T23:07:25.034Z,19.20
2023-02-28T23:10:29.486Z,22.23
2023-02-28T23:13:33.992Z,20.65
2023-02-28T23:16:48.590Z,28.90
2023-02-28T23:19:53.001Z,9.23
2023-02-28T23:22:57.285Z,10.20
2023-02-28T23:26:01.844Z,7.32
2023-02-28T23:29:07.119Z,7.53
2023-02-28T23:32:11.579Z,6.78
2023-02-28T23:35:16.752Z,18.60
2023-02-28T23:38:21.309Z,10.98
2023-02-28T23:41:26.481Z,12.25
2023-02-28T23:44:30.907Z,29.58
2023-02-28T23:47:35.371Z,10.90
2023-02-28T23:50:39.940Z,7.75
2023-02-28T23:53:48.643Z,4.67
2023-02-28T23:56:52.661Z,6.40
2023-02-28T23:59:57.693Z,8.57
